Time;durP1;ratioP1;P1;durP2;ratioP2;P2;SDS_P1;SDS_P2;PMS_P1;PMS_P2;Temp;Humidity;BMP_temperature;BMP_pressure;BME280_temperature;BME280_humidity;BME280_pressure;Samples;Min_cycle;Max_cycle;Signal;HPM_P1;HPM_P2
2023/07/06 00:00:37;;;;;;;3.23;2.20;;;15.60;57.50;;;;;;5031881;28;20194;-79
2023/07/06 00:03:03;;;;;;;2.70;2.07;;;15.60;1.00;;;;;;5032457;28;20170;-79
2023/07/06 00:05:29;;;;;;;2.00;1.80;;;15.40;95.90;;;;;;5033886;28;20166;-79
2023/07/06 00:07:56;;;;;;;3.23;2.00;;;15.30;99.90;;;;;;5032557;28;20205;-79
2023/07/06 00:10:22;;;;;;;3.70;2.10;;;15.40;1.00;;;;;;5032986;28;20194;-79
2023/07/06 00:12:47;;;;;;;4.40;2.27;;;15.30;99.90;;;;;;5033697;28;20594;-79
2023/07/06 00:15:13;;;;;;;5.03;2.33;;;15.30;99.90;;;;;;5032128;28;20182;-79
2023/07/06 00:17:39;;;;;;;2.40;2.03;;;15.30;1.00;;;;;;5032404;28;20206;-79
2023/07/06 00:20:08;;;;;;;3.60;1.80;;;15.40;99.90;;;;;;5031736;28;20784;-79
2023/07/06 00:22:36;;;;;;;3.50;2.20;;;15.30;99.90;;;;;;5032244;28;20185;-79
2023/07/06 00:25:02;;;;;;;3.43;2.00;;;15.40;99.90;;;;;;5033632;28;20531;-79
2023/07/06 00:27:29;;;;;;;2.20;1.80;;;15.50;1.00;;;;;;5033284;28;20177;-79
2023/07/06 00:30:15;;;;;;;3.10;2.20;;;15.50;99.90;;;;;;5032430;28;20281;-79
2023/07/06 00:32:42;;;;;;;2.00;1.80;;;15.40;99.90;;;;;;5032156;28;20208;-78
2023/07/06 00:35:10;;;;;;;3.50;1.90;;;15.40;99.90;;;;;;5033169;28;20220;-79
2023/07/06 00:37:39;;;;;;;2.53;1.97;;;15.40;99.90;;;;;;5047375;28;20290;-80
2023/07/06 00:40:09;;;;;;;2.57;1.90;;;15.50;99.90;;;;;;5031408;28;20300;-79
2023/07/06 00:42:35;;;;;;;2.63;2.00;;;15.60;99.90;;;;;;5031883;28;20175;-79
2023/07/06 00:45:02;;;;;;;2.53;1.97;;;15.50;99.90;;;;;;5032903;28;20254;-77
2023/07/06 00:47:49;;;;;;;2.53;1.83;;;15.40;1.00;;;;;;5032947;28;20634;-79
2023/07/06 00:50:19;;;;;;;3.90;1.97;;;15.20;1.00;;;;;;5032005;28;20205;-79
2023/07/06 00:52:48;;;;;;;2.03;1.90;;;15.10;99.90;;;;;;5048210;28;20179;-79
2023/07/06 00:55:16;;;;;;;3.70;1.97;;;15.00;99.90;;;;;;5031383;28;20704;-81
2023/07/06 00:57:44;;;;;;;2.60;2.20;;;15.10;1.00;;;;;;5031588;28;20198;-79
2023/07/06 01:00:12;;;;;;;4.10;1.93;;;15.10;99.90;;;;;;5030960;28;20610;-79
2023/07/06 01:02:40;;;;;;;3.50;2.20;;;15.20;1.00;;;;;;5047943;28;20178;-79
2023/07/06 01:05:10;;;;;;;3.10;1.90;;;15.20;99.90;;;;;;5031288;28;20178;-79
2023/07/06 01:07:39;;;;;;;2.33;2.03;;;15.30;1.00;;;;;;5031525;28;20174;-79
2023/07/06 01:10:05;;;;;;;2.10;1.80;;;15.40;99.90;;;;;;5047283;28;20191;-79
2023/07/06 01:12:31;;;;;;;3.03;1.73;;;15.40;92.50;;;;;;5031107;28;20178;-79
2023/07/06 01:14:57;;;;;;;5.13;2.10;;;15.40;3.80;;;;;;5031400;28;20270;-80
2023/07/06 01:17:50;;;;;;;4.10;2.30;;;15.40;99.90;;;;;;5030962;28;20284;-79
2023/07/06 01:20:31;;;;;;;2.23;1.77;;;15.50;99.90;;;;;;5032105;28;20193;-80
2023/07/06 01:23:02;;;;;;;2.53;1.90;;;15.40;99.90;;;;;;5031479;28;20170;-79
2023/07/06 01:25:28;;;;;;;3.50;1.90;;;15.50;99.90;;;;;;5047675;28;20257;-79
2023/07/06 01:28:06;;;;;;;3.43;2.03;;;15.40;99.90;;;;;;5032169;28;20231;-79
2023/07/06 01:30:50;;;;;;;2.60;2.00;;;15.40;99.90;;;;;;5031689;28;20221;-79
2023/07/06 01:33:30;;;;;;;2.90;1.93;;;15.40;99.90;;;;;;5047443;28;20245;-79
2023/07/06 01:36:04;;;;;;;3.10;1.83;;;15.40;1.00;;;;;;5030871;28;20268;-79
2023/07/06 01:38:29;;;;;;;3.17;1.93;;;15.40;99.90;;;;;;5047433;28;20210;-79
2023/07/06 01:41:14;;;;;;;2.77;1.90;;;15.30;1.00;;;;;;5031535;28;20566;-79
2023/07/06 01:43:41;;;;;;;2.30;2.10;;;15.30;1.00;;;;;;5032089;28;20166;-80
2023/07/06 01:46:07;;;;;;;2.00;1.90;;;15.20;1.00;;;;;;5030753;28;20170;-81
2023/07/06 01:48:33;;;;;;;2.67;2.07;;;15.20;99.90;;;;;;5031642;28;20261;-80
2023/07/06 01:51:19;;;;;;;2.63;2.00;;;15.20;99.90;;;;;;5030147;28;20594;-79
2023/07/06 01:54:12;;;;;;;2.37;2.07;;;15.20;99.90;;;;;;5031877;28;20184;-79
2023/07/06 01:56:55;;;;;;;3.30;1.93;;;15.20;1.00;;;;;;5030286;28;20174;-79
2023/07/06 01:59:26;;;;;;;4.43;1.90;;;15.30;1.00;;;;;;5031828;28;20167;-79
2023/07/06 02:02:00;;;;;;;3.37;2.17;;;15.30;1.00;;;;;;5031525;28;20190;-79
2023/07/06 02:04:27;;;;;;;2.53;1.80;;;15.20;1.00;;;;;;5031840;28;20308;-79
2023/07/06 02:06:53;;;;;;;2.43;1.87;;;15.20;1.00;;;;;;5031746;28;20182;-79
2023/07/06 02:09:20;;;;;;;2.97;2.20;;;15.20;30.50;;;;;;5031820;28;20181;-80
2023/07/06 02:11:45;;;;;;;2.97;1.90;;;15.20;1.00;;;;;;5031480;28;20285;-81
2023/07/06 02:14:11;;;;;;;4.30;2.13;;;15.20;1.00;;;;;;5030425;28;20273;-79
2023/07/06 02:16:37;;;;;;;2.53;2.07;;;15.20;99.90;;;;;;5030587;28;20178;-79
2023/07/06 02:19:03;;;;;;;4.73;2.07;;;15.20;1.00;;;;;;5031712;28;20588;-79
2023/07/06 02:21:29;;;;;;;2.80;1.90;;;15.20;1.00;;;;;;5030946;28;20214;-79
2023/07/06 02:23:55;;;;;;;1.67;1.57;;;15.20;1.00;;;;;;5030445;28;20202;-79
2023/07/06 02:26:20;;;;;;;2.83;1.90;;;15.20;1.00;;;;;;5031691;28;20175;-79
2023/07/06 02:28:46;;;;;;;2.77;1.73;;;15.10;1.00;;;;;;5031822;28;20551;-79
2023/07/06 02:31:12;;;;;;;2.50;1.80;;;15.10;99.90;;;;;;5029761;28;20220;-79
2023/07/06 02:33:38;;;;;;;36.47;29.80;;;15.00;1.00;;;;;;5030617;28;20170;-79
2023/07/06 02:36:04;;;;;;;4.13;2.07;;;14.90;99.90;;;;;;5031322;28;20178;-79
2023/07/06 02:38:29;;;;;;;2.27;1.90;;;14.90;1.00;;;;;;5031247;28;20708;-79
2023/07/06 02:40:57;;;;;;;2.53;2.07;;;14.70;1.00;;;;;;5031239;28;20187;-79
2023/07/06 02:43:25;;;;;;;3.07;1.80;;;14.50;1.00;;;;;;5030353;28;20166;-79
2023/07/06 02:45:51;;;;;;;2.87;2.00;;;14.50;99.90;;;;;;5030220;28;20190;-79
2023/07/06 02:48:19;;;;;;;3.37;1.80;;;14.40;99.90;;;;;;5030165;28;20217;-79
2023/07/06 02:50:49;;;;;;;1.93;1.70;;;14.40;99.90;;;;;;5030794;28;20210;-79
2023/07/06 02:53:15;;;;;;;3.43;2.30;;;14.40;82.60;;;;;;5030018;28;20551;-80
2023/07/06 02:55:40;;;;;;;2.37;1.97;;;14.20;99.90;;;;;;5029166;28;20204;-79
2023/07/06 02:58:06;;;;;;;2.60;1.90;;;14.20;57.10;;;;;;5031274;28;20190;-79
2023/07/06 03:00:31;;;;;;;2.80;2.23;;;14.30;1.00;;;;;;5029986;28;20333;-79
2023/07/06 03:02:58;;;;;;;2.20;1.80;;;14.30;99.90;;;;;;5033779;28;20197;-79
2023/07/06 03:05:24;;;;;;;2.37;1.90;;;14.20;1.00;;;;;;5033649;28;20653;-80
2023/07/06 03:07:54;;;;;;;3.07;2.23;;;14.20;1.00;;;;;;5034891;28;20167;-79
2023/07/06 03:10:22;;;;;;;2.43;1.90;;;14.10;99.90;;;;;;5034317;28;20240;-79
2023/07/06 03:12:48;;;;;;;3.30;1.70;;;13.90;1.00;;;;;;5034763;28;20178;-79
2023/07/06 03:15:15;;;;;;;3.30;1.93;;;13.90;1.10;;;;;;5033374;28;20224;-79
2023/07/06 03:17:42;;;;;;;3.43;2.00;;;13.90;99.90;;;;;;5033183;28;20215;-79
2023/07/06 03:20:14;;;;;;;4.23;2.20;;;13.90;1.00;;;;;;5032872;28;20221;-79
2023/07/06 03:22:44;;;;;;;2.23;1.93;;;13.90;1.00;;;;;;5034696;28;20720;-79
2023/07/06 03:25:10;;;;;;;3.10;1.90;;;13.90;1.00;;;;;;5034496;28;20171;-79
2023/07/06 03:27:36;;;;;;;2.77;1.87;;;13.80;16.30;;;;;;5034382;28;20260;-79
2023/07/06 03:30:06;;;;;;;3.10;1.90;;;13.80;99.90;;;;;;5032335;28;20190;-79
2023/07/06 03:32:37;;;;;;;2.60;1.90;;;13.90;1.00;;;;;;5033111;28;20179;-79
2023/07/06 03:35:03;;;;;;;4.07;2.07;;;13.90;99.90;;;;;;5034714;28;20186;-79
2023/07/06 03:37:29;;;;;;;3.13;2.07;;;13.90;1.00;;;;;;5034123;28;20205;-79
2023/07/06 03:39:55;;;;;;;2.63;2.10;;;13.90;1.00;;;;;;5033562;28;20198;-79
2023/07/06 03:42:20;;;;;;;2.00;1.80;;;14.00;99.90;;;;;;5032806;28;20181;-79
2023/07/06 03:44:46;;;;;;;3.13;2.00;;;14.00;1.00;;;;;;5034496;28;20205;-79
2023/07/06 03:47:11;;;;;;;2.53;1.80;;;14.00;1.00;;;;;;5032737;28;20224;-80
2023/07/06 03:49:37;;;;;;;2.53;2.10;;;13.80;99.90;;;;;;5032611;28;20607;-80
2023/07/06 03:52:03;;;;;;;2.90;2.20;;;13.60;1.00;;;;;;5032612;28;20244;-79
2023/07/06 03:54:30;;;;;;;6.13;2.07;;;13.70;1.00;;;;;;5032455;28;20183;-79
2023/07/06 03:56:56;;;;;;;5.87;2.10;;;13.60;25.10;;;;;;5032774;28;20202;-81
2023/07/06 03:59:22;;;;;;;4.47;2.07;;;13.60;86.40;;;;;;5034024;28;20196;-80
2023/07/06 04:01:48;;;;;;;5.33;2.17;;;13.60;19.30;;;;;;5032156;28;20199;-79
2023/07/06 04:04:15;;;;;;;4.43;2.30;;;13.60;56.30;;;;;;5033835;28;20534;-80
2023/07/06 04:06:41;;;;;;;9.23;2.30;;;13.60;1.00;;;;;;5032750;28;20175;-80
2023/07/06 04:09:09;;;;;;;3.17;2.23;;;13.60;1.00;;;;;;5033618;28;20170;-81
2023/07/06 04:11:35;;;;;;;3.77;1.97;;;13.70;1.00;;;;;;5032199;28;20197;-80
2023/07/06 04:14:02;;;;;;;4.87;1.80;;;13.70;48.60;;;;;;5032622;28;20170;-79
2023/07/06 04:16:27;;;;;;;3.27;1.73;;;13.60;1.00;;;;;;5032859;28;20170;-80
2023/07/06 04:18:53;;;;;;;2.43;2.07;;;13.60;1.00;;;;;;5032526;28;20214;-80
2023/07/06 04:21:19;;;;;;;3.13;1.97;;;13.60;99.90;;;;;;5031866;28;20186;-80
2023/07/06 04:23:47;;;;;;;2.70;2.00;;;13.60;99.90;;;;;;5032446;28;20196;-80
2023/07/06 04:26:14;;;;;;;2.90;2.10;;;13.60;99.90;;;;;;5034032;28;20183;-80
2023/07/06 04:28:40;;;;;;;2.97;1.90;;;13.70;99.90;;;;;;5034022;28;20175;-81
2023/07/06 04:31:06;;;;;;;2.47;1.90;;;13.70;99.90;;;;;;5031881;28;20199;-80
2023/07/06 04:33:32;;;;;;;3.53;2.17;;;13.70;99.90;;;;;;5032137;28;20177;-79
2023/07/06 04:35:58;;;;;;;3.37;2.10;;;13.60;99.90;;;;;;5033285;28;20721;-80
2023/07/06 04:38:29;;;;;;;4.37;2.00;;;13.60;99.90;;;;;;5032192;28;20201;-80
2023/07/06 04:40:55;;;;;;;4.20;2.33;;;13.50;99.90;;;;;;5032416;28;20736;-79
2023/07/06 04:43:21;;;;;;;3.97;2.00;;;13.50;99.90;;;;;;5032773;28;20258;-79
2023/07/06 04:45:46;;;;;;;2.60;1.97;;;13.40;99.90;;;;;;5033093;28;20232;-80
2023/07/06 04:48:12;;;;;;;2.40;2.00;;;13.40;1.00;;;;;;5032950;28;20178;-79
2023/07/06 04:50:38;;;;;;;2.27;2.00;;;13.50;1.00;;;;;;5030974;28;20209;-79
2023/07/06 04:53:07;;;;;;;3.13;2.10;;;13.50;1.00;;;;;;5031843;28;20268;-80
2023/07/06 04:55:33;;;;;;;2.53;1.83;;;13.80;1.00;;;;;;5032200;28;20182;-78
2023/07/06 04:58:00;;;;;;;1999.90;999.90;;;14.40;1.00;;;;;;5032604;28;20198;-79
2023/07/06 05:00:31;;;;;;;2.00;1.60;;;14.80;99.90;;;;;;5030942;28;20564;-78
2023/07/06 05:03:00;;;;;;;2.23;1.50;;;15.00;1.00;;;;;;5032807;28;20212;-79
2023/07/06 05:05:27;;;;;;;1.63;1.50;;;15.20;1.00;;;;;;5031335;28;20194;-79
2023/07/06 05:07:55;;;;;;;2.20;2.00;;;15.50;1.00;;;;;;5031502;28;20593;-79
2023/07/06 05:10:21;;;;;;;4.40;2.43;;;15.50;1.00;;;;;;5030842;28;20206;-80
2023/07/06 05:12:47;;;;;;;3.77;2.23;;;15.30;1.00;;;;;;5031513;28;20179;-80
2023/07/06 05:15:14;;;;;;;2.80;2.10;;;15.20;1.00;;;;;;5031311;28;20185;-79
2023/07/06 05:17:40;;;;;;;2.57;1.83;;;15.30;1.00;;;;;;5032687;28;20217;-79
2023/07/06 05:20:07;;;;;;;2.80;2.00;;;15.50;1.00;;;;;;5030808;28;20285;-79
2023/07/06 05:22:39;;;;;;;2.30;2.10;;;15.90;1.00;;;;;;5032430;28;20174;-79
2023/07/06 05:25:17;;;;;;;2.53;2.03;;;16.10;1.00;;;;;;5031894;28;20213;-78
2023/07/06 05:27:42;;;;;;;2.53;2.20;;;16.10;1.00;;;;;;5031237;28;20230;-79
2023/07/06 05:30:09;;;;;;;3.27;2.43;;;16.20;99.90;;;;;;5030741;28;20198;-80
2023/07/06 05:32:34;;;;;;;2.83;2.33;;;16.10;1.00;;;;;;5031162;28;20184;-79
2023/07/06 05:35:00;;;;;;;2.30;2.07;;;15.90;99.90;;;;;;5032110;28;20174;-79
2023/07/06 05:37:26;;;;;;;4.40;2.40;;;15.70;1.00;;;;;;5030649;28;20229;-80
2023/07/06 05:39:52;;;;;;;2.60;2.40;;;15.50;99.90;;;;;;5030180;28;20289;-80
2023/07/06 05:42:17;;;;;;;3.93;2.33;;;15.40;1.00;;;;;;5030801;28;20265;-79
2023/07/06 05:44:44;;;;;;;3.00;2.40;;;15.40;1.00;;;;;;5032347;28;20203;-79
2023/07/06 05:47:09;;;;;;;4.00;2.53;;;15.40;1.00;;;;;;5032171;28;20174;-80
2023/07/06 05:49:36;;;;;;;4.03;2.33;;;15.40;99.90;;;;;;5030593;28;20174;-80
2023/07/06 05:52:03;;;;;;;2.90;2.30;;;15.40;1.00;;;;;;5032179;28;20231;-81
2023/07/06 05:54:28;;;;;;;4.40;2.40;;;15.40;99.90;;;;;;5030054;28;20181;-79
2023/07/06 05:56:55;;;;;;;2.93;2.40;;;15.50;1.00;;;;;;5030803;28;20178;-79
2023/07/06 05:59:24;;;;;;;3.40;2.23;;;15.50;18.80;;;;;;5032289;28;20179;-82
2023/07/06 06:01:50;;;;;;;2.93;2.10;;;15.60;1.00;;;;;;5030501;28;20232;-81
2023/07/06 06:04:16;;;;;;;3.33;2.30;;;15.70;99.90;;;;;;5030802;28;20261;-80
2023/07/06 06:06:49;;;;;;;3.60;2.10;;;15.80;1.00;;;;;;5030699;28;20641;-80
2023/07/06 06:09:15;;;;;;;3.63;2.30;;;15.80;1.00;;;;;;5047221;28;20172;-79
2023/07/06 06:11:41;;;;;;;2.93;2.07;;;15.90;99.90;;;;;;5029244;28;20203;-79
2023/07/06 06:14:07;;;;;;;5.13;2.47;;;16.00;1.00;;;;;;5032638;28;20570;-79
2023/07/06 06:16:33;;;;;;;4.23;2.50;;;16.00;6.50;;;;;;5032319;28;20175;-80
2023/07/06 06:19:01;;;;;;;3.47;2.17;;;16.10;1.00;;;;;;5031314;28;20256;-80
2023/07/06 06:21:30;;;;;;;4.43;2.60;;;16.20;1.00;;;;;;5031000;28;20186;-79
2023/07/06 06:23:57;;;;;;;3.10;2.10;;;16.30;1.00;;;;;;5032389;28;20170;-79
2023/07/06 06:26:26;;;;;;;3.47;2.10;;;16.30;99.90;;;;;;5032575;28;20266;-80
2023/07/06 06:28:51;;;;;;;4.33;2.03;;;16.40;1.00;;;;;;5031309;28;20210;-80
2023/07/06 06:31:17;;;;;;;2.57;1.90;;;16.40;1.00;;;;;;5031850;28;20225;-80
2023/07/06 06:33:45;;;;;;;6.13;2.40;;;16.50;1.00;;;;;;5032039;28;20198;-79
2023/07/06 06:36:12;;;;;;;5.00;2.20;;;16.50;1.00;;;;;;5033403;28;20232;-77
2023/07/06 06:38:38;;;;;;;4.23;2.00;;;16.60;99.90;;;;;;5034446;28;20206;-78
2023/07/06 06:41:07;;;;;;;4.27;2.13;;;16.70;99.90;;;;;;5034807;28;20189;-78
2023/07/06 06:43:38;;;;;;;3.37;2.03;;;16.80;41.90;;;;;;5035365;28;20185;-78
2023/07/06 06:46:07;;;;;;;3.40;2.00;;;16.90;99.90;;;;;;5033149;28;20171;-79
2023/07/06 06:48:33;;;;;;;2.90;1.80;;;17.00;1.00;;;;;;5035341;28;20170;-80
2023/07/06 06:51:04;;;;;;;2.50;1.73;;;17.00;99.90;;;;;;5033042;28;20202;-81
2023/07/06 06:53:30;;;;;;;2.30;1.67;;;16.90;99.90;;;;;;5032261;28;20675;-80
2023/07/06 06:55:57;;;;;;;2.17;1.40;;;17.00;1.00;;;;;;5033610;28;20181;-80
2023/07/06 06:58:24;;;;;;;1.87;1.57;;;17.10;1.00;;;;;;5032521;28;20206;-80
2023/07/06 07:01:03;;;;;;;2.73;1.60;;;17.10;99.90;;;;;;5032798;28;20198;-80
2023/07/06 07:03:30;;;;;;;2.60;1.57;;;17.20;99.90;;;;;;5033946;28;20171;-81
2023/07/06 07:06:12;;;;;;;3.33;1.70;;;17.30;99.90;;;;;;5035018;28;20175;-80
2023/07/06 07:08:39;;;;;;;3.67;1.90;;;17.30;1.00;;;;;;5034124;28;20205;-80
2023/07/06 07:11:06;;;;;;;2.67;1.60;;;17.40;1.00;;;;;;5050267;28;20248;-80
2023/07/06 07:13:33;;;;;;;2.87;1.50;;;17.60;17.80;;;;;;5034042;28;20182;-80
2023/07/06 07:15:59;;;;;;;3.47;1.70;;;17.60;45.10;;;;;;5034032;28;20196;-80
2023/07/06 07:18:24;;;;;;;1.77;1.53;;;17.70;1.00;;;;;;5033670;28;20655;-80
2023/07/06 07:20:53;;;;;;;2.63;1.50;;;17.70;10.00;;;;;;5034391;28;20191;-81
2023/07/06 07:23:26;;;;;;;2.50;1.70;;;17.70;17.60;;;;;;5035203;28;20177;-80
2023/07/06 07:25:52;;;;;;;3.07;1.83;;;17.80;99.90;;;;;;5035181;28;20257;-80
2023/07/06 07:28:18;;;;;;;3.70;1.60;;;18.00;99.90;;;;;;5034905;28;20175;-80
2023/07/06 07:30:57;;;;;;;1.97;1.60;;;18.10;99.90;;;;;;5032899;28;20572;-80
2023/07/06 07:33:24;;;;;;;2.77;1.50;;;18.10;1.00;;;;;;5033296;28;20178;-80
2023/07/06 07:35:53;;;;;;;3.83;1.50;;;18.20;1.00;;;;;;5033419;28;20600;-80
2023/07/06 07:38:19;;;;;;;4.17;1.60;;;18.40;1.00;;;;;;5034631;28;20206;-80
2023/07/06 07:41:00;;;;;;;3.07;1.53;;;18.40;1.00;;;;;;5032709;28;20213;-80
2023/07/06 07:43:29;;;;;;;2.93;1.47;;;18.60;1.00;;;;;;5035022;28;20225;-80
2023/07/06 07:46:03;;;;;;;1.83;1.30;;;18.70;99.90;;;;;;5033244;28;20170;-80
2023/07/06 07:48:30;;;;;;;3.27;1.83;;;18.80;99.90;;;;;;5032992;28;20240;-80
2023/07/06 07:50:56;;;;;;;1.60;1.20;;;18.80;99.90;;;;;;5033730;28;20271;-80
2023/07/06 07:53:24;;;;;;;1.60;1.40;;;18.80;99.90;;;;;;5033333;28;20182;-80
2023/07/06 07:55:50;;;;;;;2.47;1.70;;;18.90;99.90;;;;;;5033179;28;20269;-81
2023/07/06 07:58:16;;;;;;;3.33;1.70;;;19.10;99.90;;;;;;5033351;28;20202;-80
2023/07/06 08:00:55;;;;;;;4.23;1.53;;;19.20;99.90;;;;;;5033827;28;20236;-80
2023/07/06 08:03:24;;;;;;;2.70;1.73;;;19.30;99.90;;;;;;5033968;28;20216;-80
2023/07/06 08:05:59;;;;;;;3.30;1.80;;;19.30;99.90;;;;;;5032996;28;20294;-79
2023/07/06 08:08:25;;;;;;;2.40;1.53;;;19.20;99.90;;;;;;5032792;28;20311;-80
2023/07/06 08:10:55;;;;;;;2.23;1.50;;;19.10;99.90;;;;;;5032251;28;20197;-80
2023/07/06 08:13:22;;;;;;;2.53;1.67;;;19.00;99.90;;;;;;5032955;28;20198;-80
2023/07/06 08:15:48;;;;;;;3.63;1.60;;;18.90;99.90;;;;;;5032931;28;20174;-80
2023/07/06 08:18:15;;;;;;;2.20;1.70;;;19.00;99.90;;;;;;5033872;28;20209;-81
2023/07/06 08:20:46;;;;;;;2.20;1.80;;;19.20;99.90;;;;;;5033165;28;20190;-80
2023/07/06 08:23:12;;;;;;;3.10;1.53;;;19.40;99.90;;;;;;5034086;28;20201;-80
2023/07/06 08:25:40;;;;;;;2.13;1.33;;;19.60;99.90;;;;;;5034099;28;20166;-80
2023/07/06 08:28:07;;;;;;;3.23;1.47;;;19.70;27.80;;;;;;5034181;28;20185;-80
2023/07/06 08:30:35;;;;;;;2.87;1.70;;;19.80;24.70;;;;;;5031945;28;20216;-80
2023/07/06 08:33:00;;;;;;;2.00;1.50;;;20.00;1.00;;;;;;5033507;28;20166;-80
2023/07/06 08:35:28;;;;;;;2.43;1.27;;;20.10;1.00;;;;;;5032389;28;20174;-80
2023/07/06 08:37:54;;;;;;;2.97;1.50;;;20.10;1.00;;;;;;5033799;28;20281;-80
2023/07/06 08:40:25;;;;;;;3.13;1.47;;;20.10;1.00;;;;;;5031811;28;20289;-81
2023/07/06 08:42:53;;;;;;;3.33;1.70;;;20.30;1.00;;;;;;5033642;28;20174;-81
2023/07/06 08:45:39;;;;;;;2.87;1.50;;;20.40;1.00;;;;;;5033518;28;20162;-80
2023/07/06 08:48:05;;;;;;;2.77;1.50;;;20.30;1.00;;;;;;5033121;28;20177;-80
2023/07/06 08:50:33;;;;;;;1.93;1.30;;;20.30;1.00;;;;;;5032700;28;20206;-80
2023/07/06 08:53:00;;;;;;;3.83;1.50;;;20.60;1.00;;;;;;5031821;28;20220;-80
2023/07/06 08:55:30;;;;;;;2.03;1.45;;;20.70;1.00;;;;;;5033281;28;20171;-82
2023/07/06 08:57:56;;;;;;;2.78;1.30;;;20.90;1.00;;;;;;5030670;28;20209;-78
2023/07/06 09:00:25;;;;;;;2.50;1.48;;;21.00;1.00;;;;;;5030902;28;20281;-80
2023/07/06 09:03:05;;;;;;;2.45;1.40;;;21.20;1.00;;;;;;5032028;28;20174;-79
2023/07/06 09:05:33;;;;;;;2.60;1.40;;;21.10;99.90;;;;;;5033487;28;20602;-79
2023/07/06 09:08:00;;;;;;;1.77;1.30;;;21.10;1.00;;;;;;5033241;28;20244;-79
2023/07/06 09:10:28;;;;;;;1.63;1.40;;;21.10;99.90;;;;;;5032281;28;20226;-80
2023/07/06 09:13:11;;;;;;;2.53;1.40;;;21.20;99.90;;;;;;5031450;28;20182;-79
2023/07/06 09:15:38;;;;;;;1.73;1.40;;;21.30;99.90;;;;;;5047680;28;20182;-79
2023/07/06 09:18:04;;;;;;;1.70;1.40;;;21.10;99.90;;;;;;5031321;28;20244;-80
2023/07/06 09:20:33;;;;;;;2.28;1.40;;;21.30;1.00;;;;;;5031864;28;20239;-79
2023/07/06 09:23:01;;;;;;;2.35;1.45;;;21.30;99.90;;;;;;5031202;28;20185;-80
2023/07/06 09:25:36;;;;;;;1.40;1.30;;;21.40;1.00;;;;;;5031724;28;20166;-80
2023/07/06 09:28:07;;;;;;;2.15;1.50;;;21.50;99.90;;;;;;5031666;28;20166;-79
2023/07/06 09:30:37;;;;;;;2.13;1.35;;;21.60;99.90;;;;;;5031114;28;20198;-79
2023/07/06 09:33:06;;;;;;;2.10;1.45;;;21.60;99.90;;;;;;5031808;28;20189;-80
2023/07/06 09:35:36;;;;;;;2.95;1.67;;;21.70;99.90;;;;;;5031975;28;20240;-79
2023/07/06 09:38:06;;;;;;;1.63;1.30;;;21.80;99.90;;;;;;5048023;28;20596;-80
2023/07/06 09:40:32;;;;;;;2.00;1.40;;;22.00;99.90;;;;;;5032470;28;20186;-80
2023/07/06 09:42:57;;;;;;;2.10;1.40;;;22.10;99.90;;;;;;5031044;28;20175;-79
2023/07/06 09:45:27;;;;;;;2.65;1.67;;;22.00;99.90;;;;;;5031346;28;20178;-79
2023/07/06 09:48:18;;;;;;;2.00;1.35;;;21.70;99.90;;;;;;5032421;28;20182;-79
2023/07/06 09:50:50;;;;;;;1.80;1.30;;;21.80;99.90;;;;;;5014611;28;20762;-80
2023/07/06 09:53:31;;;;;;;1.73;1.38;;;21.80;99.90;;;;;;5031509;28;20177;-80
2023/07/06 09:55:57;;;;;;;2.55;1.55;;;22.30;99.90;;;;;;5031368;28;20216;-79
2023/07/06 09:58:30;;;;;;;2.70;1.60;;;22.50;99.90;;;;;;5031368;28;20206;-79
2023/07/06 10:01:03;;;;;;;1.80;1.30;;;22.50;99.90;;;;;;5031922;28;20198;-79
2023/07/06 10:03:50;;;;;;;2.63;1.40;;;22.50;99.90;;;;;;5032674;28;20170;-79
2023/07/06 10:06:40;;;;;;;3.05;1.85;;;22.60;99.90;;;;;;5032698;28;20578;-80
2023/07/06 10:09:14;;;;;;;1.83;1.20;;;22.70;99.90;;;;;;5032718;28;20208;-79
2023/07/06 10:12:17;;;;;;;1.70;1.60;;;23.00;99.90;;;;;;5036242;28;20197;-80
2023/07/06 10:14:50;;;;;;;1.88;1.40;;;23.10;99.90;;;;;;5022682;28;20185;-79
2023/07/06 10:17:38;;;;;;;2.88;1.60;;;23.00;99.90;;;;;;5036703;28;20287;-80
2023/07/06 10:20:34;;;;;;;3.30;1.40;;;22.50;99.90;;;;;;5034620;28;20194;-79
2023/07/06 10:23:40;;;;;;;2.88;1.63;;;21.90;99.90;;;;;;5036220;28;20154;-79
2023/07/06 10:26:15;;;;;;;4.40;1.70;;;22.40;99.90;;;;;;5035369;28;20170;-80
2023/07/06 10:28:50;;;;;;;1.80;1.48;;;22.90;99.90;;;;;;5051581;28;20183;-81
2023/07/06 10:31:19;;;;;;;2.45;1.48;;;23.10;99.90;;;;;;5035004;28;20288;-80
2023/07/06 10:34:13;;;;;;;1.85;1.42;;;22.70;99.90;;;;;;5036063;28;20208;-82
2023/07/06 10:36:40;;;;;;;3.92;2.00;;;22.30;99.90;;;;;;5035217;28;20186;-81
2023/07/06 10:39:24;;;;;;;1.55;1.40;;;22.00;99.90;;;;;;5035820;28;20712;-80
2023/07/06 10:42:05;;;;;;;1.77;1.48;;;21.70;99.90;;;;;;5051973;28;20200;-81
2023/07/06 10:44:46;;;;;;;2.47;1.55;;;21.60;99.90;;;;;;5035574;28;20167;-81
2023/07/06 10:47:34;;;;;;;1.73;1.50;;;21.50;99.90;;;;;;5036931;28;20664;-80
2023/07/06 10:50:11;;;;;;;1.90;1.65;;;21.30;99.90;;;;;;5034695;28;20226;-81
2023/07/06 10:52:42;;;;;;;2.65;1.88;;;21.70;99.90;;;;;;5036733;28;20178;-79
2023/07/06 10:55:18;;;;;;;3.40;1.75;;;22.10;99.90;;;;;;5036970;28;20159;-80
2023/07/06 10:57:49;;;;;;;3.25;1.80;;;22.10;99.90;;;;;;5051774;28;20235;-80
2023/07/06 11:00:18;;;;;;;2.17;1.63;;;22.00;99.90;;;;;;5033767;28;20198;-79
2023/07/06 11:02:45;;;;;;;2.58;1.67;;;22.30;99.90;;;;;;5035291;28;20171;-78
2023/07/06 11:05:32;;;;;;;2.30;1.80;;;23.00;99.90;;;;;;5037102;28;20522;-79
2023/07/06 11:08:10;;;;;;;2.13;1.80;;;23.20;99.90;;;;;;5036365;28;20533;-79
2023/07/06 11:10:37;;;;;;;2.80;1.90;;;22.60;99.90;;;;;;5033750;28;20206;-79
2023/07/06 11:13:04;;;;;;;1.95;1.48;;;22.40;99.90;;;;;;5035414;28;20304;-79
2023/07/06 11:15:35;;;;;;;2.25;1.60;;;22.30;99.90;;;;;;5050387;28;20219;-80
2023/07/06 11:18:44;;;;;;;3.00;1.80;;;22.10;99.90;;;;;;5050697;28;20198;-79
2023/07/06 11:21:51;;;;;;;2.10;1.70;;;22.10;99.90;;;;;;5033864;28;20560;-80
2023/07/06 11:24:21;;;;;;;1.75;1.60;;;22.30;99.90;;;;;;5031766;28;20182;-79
2023/07/06 11:26:53;;;;;;;1.90;1.40;;;22.30;99.90;;;;;;5033703;28;20205;-79
2023/07/06 11:29:20;;;;;;;3.22;1.67;;;22.70;99.90;;;;;;5033929;28;20177;-79
2023/07/06 11:32:24;;;;;;;2.28;1.70;;;23.10;99.90;;;;;;5032975;28;20198;-80
2023/07/06 11:35:05;;;;;;;2.25;1.70;;;23.10;99.90;;;;;;5049834;28;20201;-79
2023/07/06 11:37:57;;;;;;;2.10;1.60;;;22.80;99.90;;;;;;5035198;28;20277;-79
2023/07/06 11:40:38;;;;;;;2.63;1.50;;;23.20;99.90;;;;;;5032961;28;20237;-79
2023/07/06 11:43:22;;;;;;;2.80;1.77;;;23.40;99.90;;;;;;5034851;28;20245;-79
2023/07/06 11:46:14;;;;;;;2.28;1.48;;;23.80;99.90;;;;;;5050244;28;20170;-79
2023/07/06 11:48:55;;;;;;;2.08;1.60;;;24.10;99.90;;;;;;5050101;28;20167;-79
2023/07/06 11:51:22;;;;;;;2.88;1.60;;;24.40;99.90;;;;;;5059139;22;20225;-79
2023/07/06 11:57:24;;;;;;;1.85;1.50;;;25.00;99.90;;;;;;4957191;28;20172;-81
2023/07/06 11:59:38;;;;;;;2.65;1.60;;;25.10;99.90;;;;;;4957741;29;20304;-81
2023/07/06 12:02:17;;;;;;;2.30;1.70;;;24.50;99.90;;;;;;4959095;28;20217;-82
2023/07/06 12:04:46;;;;;;;1.85;1.50;;;24.80;99.90;;;;;;4962466;28;20180;-81
2023/07/06 12:07:29;;;;;;;2.63;1.65;;;25.00;99.90;;;;;;4960681;29;20178;-81
2023/07/06 12:10:04;;;;;;;2.05;1.50;;;25.10;99.90;;;;;;4960064;29;20181;-81
2023/07/06 12:12:30;;;;;;;2.08;1.60;;;24.80;99.90;;;;;;4960573;28;20226;-82
2023/07/06 12:14:58;;;;;;;2.55;1.48;;;24.50;99.90;;;;;;4959814;28;20181;-81
2023/07/06 12:17:24;;;;;;;2.00;1.77;;;24.30;99.90;;;;;;4960014;29;20227;-81
2023/07/06 12:19:57;;;;;;;2.17;1.60;;;24.20;99.90;;;;;;4960147;29;20287;-81
2023/07/06 12:22:23;;;;;;;3.00;1.55;;;24.40;99.90;;;;;;4961838;28;20193;-82
2023/07/06 12:24:52;;;;;;;2.00;1.50;;;24.80;99.90;;;;;;4960552;29;20235;-81
2023/07/06 12:27:18;;;;;;;3.35;1.50;;;25.00;99.90;;;;;;4962164;28;20207;-81
2023/07/06 12:29:45;;;;;;;1.75;1.40;;;25.20;99.90;;;;;;4961117;28;20196;-81
2023/07/06 12:32:19;;;;;;;1.98;1.50;;;25.50;99.90;;;;;;4959455;28;20193;-81
2023/07/06 12:34:49;;;;;;;1.50;1.40;;;25.30;93.80;;;;;;4961990;28;20181;-81
2023/07/06 12:37:17;;;;;;;2.20;1.50;;;25.50;92.10;;;;;;4962715;28;20209;-81
2023/07/06 12:39:45;;;;;;;1.77;1.40;;;25.80;87.60;;;;;;4962339;28;20679;-80
2023/07/06 12:42:13;;;;;;;1.73;1.40;;;26.00;76.20;;;;;;4963246;28;20197;-80
2023/07/06 12:44:42;;;;;;;2.17;1.30;;;25.90;71.00;;;;;;4963023;28;20223;-81
2023/07/06 12:47:37;;;;;;;1.48;1.38;;;25.70;66.80;;;;;;4960681;29;20181;-81
2023/07/06 12:50:05;;;;;;;2.40;1.40;;;25.90;58.00;;;;;;4963228;28;20177;-80
2023/07/06 12:52:33;;;;;;;1.83;1.27;;;25.70;54.20;;;;;;4962583;28;20209;-81
2023/07/06 12:54:59;;;;;;;2.10;1.42;;;26.10;58.70;;;;;;4961775;29;20227;-80
2023/07/06 12:57:28;;;;;;;1.98;1.50;;;26.30;56.20;;;;;;4964621;29;20200;-81
2023/07/06 13:00:15;;;;;;;2.42;1.50;;;26.20;55.10;;;;;;4963894;28;20166;-81
2023/07/06 13:02:42;;;;;;;2.63;1.42;;;26.00;46.70;;;;;;4961617;29;20169;-81
2023/07/06 13:05:23;;;;;;;2.42;1.30;;;26.20;45.70;;;;;;4961735;29;20531;-81
2023/07/06 13:07:50;;;;;;;1.52;1.30;;;26.60;43.00;;;;;;4965340;28;20188;-83
2023/07/06 13:10:20;;;;;;;1.80;1.42;;;26.90;39.30;;;;;;4961484;28;20192;-81